Time;durP1;ratioP1;P1;durP2;ratioP2;P2;SDS_P1;SDS_P2;PMS_P1;PMS_P2;Temp;Humidity;BMP_temperature;BMP_pressure;BME280_temperature;BME280_humidity;BME280_pressure;Samples;Min_cycle;Max_cycle;Signal;HPM_P1;HPM_P2
2022/04/20 00:01:06;;;;;;;14.93;10.18;;;9.70;99.90;;;;;;5046068;28;20028;-71
2022/04/20 00:03:32;;;;;;;15.90;10.63;;;9.70;99.90;;;;;;5046671;28;20018;-70
2022/04/20 00:05:57;;;;;;;20.10;11.18;;;9.70;99.90;;;;;;5046142;28;20017;-71
2022/04/20 00:08:23;;;;;;;19.27;12.48;;;9.70;99.90;;;;;;5046216;28;20071;-72
2022/04/20 00:10:49;;;;;;;19.40;11.45;;;9.60;99.90;;;;;;5045879;28;20052;-72
2022/04/20 00:13:14;;;;;;;15.75;10.57;;;9.60;99.90;;;;;;5014392;28;20022;-72
2022/04/20 00:15:40;;;;;;;16.58;11.32;;;9.70;99.90;;;;;;5026427;28;20278;-71
2022/04/20 00:18:06;;;;;;;18.42;11.00;;;9.60;99.90;;;;;;5025852;28;20045;-70
2022/04/20 00:20:32;;;;;;;17.02;10.85;;;9.60;99.90;;;;;;5025551;28;20018;-71
2022/04/20 00:22:57;;;;;;;21.10;10.98;;;9.60;99.90;;;;;;5025849;28;20028;-71
2022/04/20 00:25:23;;;;;;;18.80;11.82;;;9.60;99.90;;;;;;5008445;28;20033;-71
2022/04/20 00:27:49;;;;;;;18.63;11.02;;;9.60;99.90;;;;;;5025776;28;20190;-71
2022/04/20 00:30:15;;;;;;;21.88;11.82;;;9.50;99.90;;;;;;5026176;28;20026;-72
2022/04/20 00:32:41;;;;;;;18.83;12.20;;;9.50;99.90;;;;;;5009517;28;20067;-71
2022/04/20 00:35:09;;;;;;;19.00;11.52;;;9.50;99.90;;;;;;5044158;28;20265;-71
2022/04/20 00:37:35;;;;;;;18.23;11.63;;;9.50;99.90;;;;;;5046907;28;20025;-71
2022/04/20 00:40:03;;;;;;;20.55;12.15;;;9.40;99.90;;;;;;5028814;28;20079;-72
2022/04/20 00:42:29;;;;;;;19.55;12.18;;;9.40;99.90;;;;;;5045462;28;20208;-71
2022/04/20 00:44:54;;;;;;;19.63;12.57;;;9.40;99.90;;;;;;5046760;28;20034;-72
2022/04/20 00:47:22;;;;;;;19.48;12.35;;;9.30;99.90;;;;;;5025353;28;20085;-71
2022/04/20 00:49:48;;;;;;;21.92;12.82;;;9.40;99.90;;;;;;5041489;28;20026;-71
2022/04/20 00:52:14;;;;;;;19.80;12.27;;;9.30;99.90;;;;;;5025524;28;20080;-71
2022/04/20 00:54:39;;;;;;;21.75;13.05;;;9.30;99.90;;;;;;5025463;28;20026;-72
2022/04/20 00:57:06;;;;;;;22.55;12.90;;;9.30;99.90;;;;;;5010418;28;20076;-71
2022/04/20 00:59:34;;;;;;;18.80;12.98;;;9.20;99.90;;;;;;5028693;28;20052;-72
2022/04/20 01:02:01;;;;;;;23.52;13.45;;;9.30;99.90;;;;;;5045027;28;20301;-72
2022/04/20 01:04:27;;;;;;;22.60;13.60;;;9.30;99.90;;;;;;5044564;28;20025;-72
2022/04/20 01:06:53;;;;;;;26.60;14.18;;;9.30;99.90;;;;;;5045125;28;20028;-72
2022/04/20 01:09:19;;;;;;;20.80;13.10;;;9.30;99.90;;;;;;5044996;28;20243;-71
2022/04/20 01:11:45;;;;;;;19.20;13.07;;;9.20;99.90;;;;;;5028086;28;20032;-72
2022/04/20 01:14:12;;;;;;;26.17;14.52;;;9.20;99.90;;;;;;5046248;28;20017;-73
2022/04/20 01:16:38;;;;;;;21.98;14.07;;;9.20;99.90;;;;;;5028367;28;20025;-71
2022/04/20 01:19:03;;;;;;;19.38;14.20;;;9.20;99.90;;;;;;5027811;28;20097;-70
2022/04/20 01:21:30;;;;;;;21.70;14.40;;;9.20;99.90;;;;;;5046080;28;20063;-71
2022/04/20 01:23:56;;;;;;;24.15;15.10;;;9.10;99.90;;;;;;5028256;28;20022;-71
2022/04/20 01:26:21;;;;;;;21.42;13.65;;;9.20;99.90;;;;;;5042755;28;20032;-70
2022/04/20 01:28:48;;;;;;;28.98;15.00;;;9.20;99.90;;;;;;5044690;28;20021;-70
2022/04/20 01:31:15;;;;;;;20.17;13.68;;;9.20;99.90;;;;;;5044333;28;20026;-71
2022/04/20 01:33:42;;;;;;;27.10;14.40;;;9.20;99.90;;;;;;5024607;28;20247;-71
2022/04/20 01:36:09;;;;;;;22.88;13.35;;;9.20;99.90;;;;;;5008661;28;20092;-71
2022/04/20 01:38:36;;;;;;;21.98;14.20;;;9.20;99.90;;;;;;5024531;28;20028;-71
2022/04/20 01:41:02;;;;;;;21.50;12.55;;;9.20;99.90;;;;;;5024549;28;20018;-72
2022/04/20 01:43:28;;;;;;;21.98;12.65;;;9.30;99.90;;;;;;5024294;28;20186;-71
2022/04/20 01:45:54;;;;;;;19.83;12.88;;;9.30;99.90;;;;;;5024488;28;20034;-71
2022/04/20 01:48:19;;;;;;;18.60;12.25;;;9.30;99.90;;;;;;5043694;28;20088;-71
2022/04/20 01:53:31;;;;;;;17.08;12.40;;;9.50;99.90;;;;;;5043851;28;20032;-70
2022/04/20 01:55:59;;;;;;;20.42;12.18;;;9.50;99.90;;;;;;5044186;28;20017;-71
2022/04/20 01:58:24;;;;;;;17.02;11.15;;;9.50;99.90;;;;;;5023863;28;20060;-71
2022/04/20 02:00:50;;;;;;;17.33;11.02;;;9.60;99.90;;;;;;5024362;28;20025;-71
2022/04/20 02:03:16;;;;;;;17.10;11.50;;;9.50;99.90;;;;;;5007397;28;20224;-71
2022/04/20 02:05:42;;;;;;;15.90;10.80;;;9.50;99.90;;;;;;5008066;28;20041;-71
2022/04/20 02:08:07;;;;;;;18.38;11.48;;;9.50;99.90;;;;;;4991194;28;20024;-72
2022/04/20 02:10:34;;;;;;;18.33;11.15;;;9.50;99.90;;;;;;5024099;28;20377;-71
2022/04/20 02:12:59;;;;;;;19.33;11.40;;;9.50;99.90;;;;;;5036683;28;20076;-71
2022/04/20 02:15:25;;;;;;;23.27;11.25;;;9.50;99.90;;;;;;5043797;28;20025;-71
2022/04/20 02:17:51;;;;;;;18.83;11.52;;;9.50;99.90;;;;;;5043094;28;20221;-71
2022/04/20 02:20:17;;;;;;;18.42;10.88;;;9.60;99.90;;;;;;5043268;28;20274;-71
2022/04/20 02:22:43;;;;;;;17.83;11.43;;;9.60;99.90;;;;;;5026938;28;20032;-72
2022/04/20 02:25:09;;;;;;;16.95;11.13;;;9.60;99.90;;;;;;5043710;28;20048;-71
2022/04/20 02:27:35;;;;;;;16.23;11.90;;;9.50;99.90;;;;;;5043547;28;20075;-70
2022/04/20 02:30:01;;;;;;;19.65;10.15;;;9.60;99.90;;;;;;5043436;28;20021;-71
2022/04/20 02:32:27;;;;;;;18.52;10.88;;;9.60;99.90;;;;;;5043231;28;20260;-70
2022/04/20 02:34:52;;;;;;;18.02;10.32;;;9.60;99.90;;;;;;5026823;28;20197;-71
2022/04/20 02:37:18;;;;;;;18.92;10.85;;;9.50;99.90;;;;;;5026739;28;20308;-70
2022/04/20 02:39:44;;;;;;;19.50;11.23;;;9.40;99.90;;;;;;5042827;28;20227;-70
2022/04/20 02:42:11;;;;;;;17.33;10.45;;;9.40;99.90;;;;;;5043542;28;20025;-72
2022/04/20 02:44:39;;;;;;;16.65;10.32;;;9.40;99.90;;;;;;5026860;28;20024;-71
2022/04/20 02:47:05;;;;;;;15.40;9.98;;;9.40;99.90;;;;;;5043101;28;20260;-71
2022/04/20 02:49:31;;;;;;;17.65;11.05;;;9.40;99.90;;;;;;5042821;28;20021;-70
2022/04/20 02:51:56;;;;;;;18.65;10.70;;;9.40;99.90;;;;;;5026591;28;20055;-71
2022/04/20 02:54:22;;;;;;;15.80;10.70;;;9.40;99.90;;;;;;5026542;28;20021;-70
2022/04/20 02:56:48;;;;;;;14.95;10.43;;;9.40;99.90;;;;;;5042667;28;20116;-71
2022/04/20 02:59:13;;;;;;;22.27;11.25;;;9.30;99.90;;;;;;5023276;28;20030;-71
2022/04/20 03:01:39;;;;;;;19.60;11.43;;;9.30;99.90;;;;;;5023251;28;20022;-70
2022/04/20 03:04:05;;;;;;;21.27;12.45;;;9.30;99.90;;;;;;5023010;28;20034;-71
2022/04/20 03:06:31;;;;;;;24.55;12.95;;;9.30;99.90;;;;;;5022879;28;20022;-71
2022/04/20 03:08:57;;;;;;;21.65;11.75;;;9.20;99.90;;;;;;5022875;28;20025;-71
2022/04/20 03:11:23;;;;;;;20.20;13.15;;;9.30;99.90;;;;;;5023180;28;20094;-71
2022/04/20 03:13:49;;;;;;;18.23;12.45;;;9.20;99.90;;;;;;5025855;28;20028;-71
2022/04/20 03:16:15;;;;;;;26.27;14.10;;;9.20;99.90;;;;;;5043000;28;20021;-70
2022/04/20 03:18:41;;;;;;;22.95;13.57;;;9.10;99.90;;;;;;5025903;28;20075;-72
2022/04/20 03:21:07;;;;;;;21.38;13.13;;;9.10;99.90;;;;;;5044112;28;20021;-70
2022/04/20 03:23:33;;;;;;;19.35;12.65;;;9.00;99.90;;;;;;5025910;28;20320;-71
2022/04/20 03:25:59;;;;;;;26.27;14.68;;;9.00;99.90;;;;;;5026377;28;20312;-71
2022/04/20 03:28:24;;;;;;;18.98;13.32;;;9.00;99.90;;;;;;5024599;28;20052;-71
2022/04/20 03:30:50;;;;;;;22.50;13.35;;;9.00;99.90;;;;;;5025994;28;20026;-71
2022/04/20 03:33:16;;;;;;;24.00;14.60;;;9.00;99.90;;;;;;5042313;28;20212;-71
2022/04/20 03:35:42;;;;;;;23.63;15.10;;;9.00;99.90;;;;;;5025957;28;20213;-71
2022/04/20 03:38:09;;;;;;;20.15;13.70;;;9.00;99.90;;;;;;5042145;28;20030;-71
2022/04/20 03:40:35;;;;;;;22.38;13.95;;;8.90;99.90;;;;;;5042297;28;20033;-71
2022/04/20 03:43:02;;;;;;;27.55;15.32;;;8.90;99.90;;;;;;5042511;28;20087;-72
2022/04/20 03:45:28;;;;;;;26.15;14.35;;;8.90;99.90;;;;;;5042315;28;20025;-71
2022/04/20 03:47:53;;;;;;;26.33;13.82;;;8.80;99.90;;;;;;5042432;28;20033;-71
2022/04/20 03:50:20;;;;;;;25.00;13.93;;;8.80;99.90;;;;;;5025206;28;20416;-70
2022/04/20 03:52:45;;;;;;;23.38;14.07;;;8.70;99.90;;;;;;5042069;28;20029;-71
2022/04/20 03:55:11;;;;;;;31.77;14.32;;;8.70;99.90;;;;;;5041830;28;20076;-71
2022/04/20 03:57:38;;;;;;;21.55;13.82;;;8.70;99.90;;;;;;5022415;28;20053;-72
2022/04/20 04:00:05;;;;;;;22.25;14.18;;;8.60;99.90;;;;;;5022282;28;20041;-70
2022/04/20 04:02:31;;;;;;;24.60;14.10;;;8.60;99.90;;;;;;5022519;28;20332;-70
2022/04/20 04:04:57;;;;;;;22.15;14.15;;;8.50;99.90;;;;;;5006312;28;20076;-71
2022/04/20 04:07:23;;;;;;;28.10;14.48;;;8.50;99.90;;;;;;5006129;28;20089;-70
2022/04/20 04:09:49;;;;;;;23.73;14.18;;;8.50;99.90;;;;;;5006350;28;20097;-71
2022/04/20 04:12:15;;;;;;;23.88;13.45;;;8.40;99.90;;;;;;5025083;28;20245;-70
2022/04/20 04:14:41;;;;;;;23.92;14.20;;;8.40;99.90;;;;;;5022512;28;20065;-71
2022/04/20 04:17:08;;;;;;;23.23;13.82;;;8.30;99.90;;;;;;5022305;28;20320;-72
2022/04/20 04:19:35;;;;;;;23.48;14.65;;;8.30;99.90;;;;;;5021797;28;20436;-71
2022/04/20 04:22:02;;;;;;;24.05;14.27;;;8.30;99.90;;;;;;5023281;28;20026;-71
2022/04/20 04:24:35;;;;;;;23.13;13.93;;;8.20;99.90;;;;;;5005574;28;20022;-72
2022/04/20 04:27:03;;;;;;;26.75;14.50;;;8.20;99.90;;;;;;5021951;28;20026;-72
2022/04/20 04:29:28;;;;;;;23.05;13.25;;;8.10;99.90;;;;;;5004672;28;20049;-71
2022/04/20 04:31:55;;;;;;;23.73;13.52;;;8.10;99.90;;;;;;5005772;28;20367;-71
2022/04/20 04:34:21;;;;;;;23.58;13.38;;;8.00;99.90;;;;;;5035127;28;20025;-72
2022/04/20 04:36:46;;;;;;;23.08;14.43;;;8.00;99.90;;;;;;5042052;28;20223;-71
2022/04/20 04:39:14;;;;;;;24.40;14.50;;;8.00;99.90;;;;;;5025187;28;20052;-71
2022/04/20 04:41:42;;;;;;;26.42;13.63;;;8.00;99.90;;;;;;5012840;28;20053;-71
2022/04/20 04:44:08;;;;;;;22.80;13.77;;;8.00;99.90;;;;;;5046704;28;20201;-70
2022/04/20 04:49:20;;;;;;;25.42;13.55;;;8.00;99.90;;;;;;5017980;28;20028;-72
2022/04/20 04:51:45;;;;;;;23.23;14.30;;;7.90;99.90;;;;;;5028698;28;20021;-73
2022/04/20 04:54:11;;;;;;;26.38;15.15;;;7.90;99.90;;;;;;5046685;28;20047;-71
2022/04/20 04:56:37;;;;;;;20.20;12.52;;;8.00;99.90;;;;;;5028358;28;20079;-72
2022/04/20 04:59:02;;;;;;;22.85;13.93;;;8.00;99.90;;;;;;5011812;28;20068;-71
2022/04/20 05:01:28;;;;;;;20.98;13.93;;;8.00;99.90;;;;;;5028769;28;20029;-71
2022/04/20 05:03:54;;;;;;;23.42;14.27;;;7.90;99.90;;;;;;5028680;28;20025;-72
2022/04/20 05:06:20;;;;;;;21.73;14.65;;;7.80;99.90;;;;;;5046254;28;20033;-71
2022/04/20 05:08:46;;;;;;;24.90;13.73;;;7.80;99.90;;;;;;5045045;28;20100;-72
2022/04/20 05:11:11;;;;;;;26.73;13.93;;;7.80;99.90;;;;;;5045823;28;20085;-71
2022/04/20 05:13:37;;;;;;;25.13;14.13;;;7.80;99.90;;;;;;5025125;28;20025;-71
2022/04/20 05:16:03;;;;;;;25.98;14.63;;;7.80;99.90;;;;;;5025255;28;20022;-71
2022/04/20 05:18:28;;;;;;;23.85;14.77;;;7.80;99.90;;;;;;5008521;28;20029;-71
2022/04/20 05:20:54;;;;;;;22.95;13.88;;;7.80;99.90;;;;;;5024790;28;20331;-71
2022/04/20 05:23:19;;;;;;;24.33;13.82;;;7.80;99.90;;;;;;5025830;28;20092;-72
2022/04/20 05:25:45;;;;;;;25.25;14.65;;;7.80;99.90;;;;;;5008661;28;20052;-72
2022/04/20 05:31:33;;;;;;;28.63;14.32;;;7.80;99.90;;;;;;5025648;28;20279;-72
2022/04/20 05:34:00;;;;;;;26.83;13.95;;;7.90;99.90;;;;;;5035081;28;20045;-71
2022/04/20 05:41:39;;;;;;;25.83;14.13;;;8.00;99.90;;;;;;5027944;28;20040;-72
2022/04/20 05:41:57;;;;;;;24.45;13.52;;;8.00;99.90;;;;;;5030256;28;20036;-72
2022/04/20 05:44:23;;;;;;;24.50;13.48;;;7.90;99.90;;;;;;5044386;28;20013;-71
2022/04/20 05:46:49;;;;;;;22.85;13.60;;;8.00;99.90;;;;;;5044072;28;20025;-71
2022/04/20 05:49:15;;;;;;;28.67;13.70;;;8.00;99.90;;;;;;5027550;28;20419;-73
2022/04/20 05:51:41;;;;;;;24.58;13.18;;;8.00;99.90;;;;;;5010074;28;20028;-72
2022/04/20 05:54:07;;;;;;;29.77;13.38;;;8.00;99.90;;;;;;5011165;28;20022;-72
2022/04/20 05:56:32;;;;;;;27.10;13.55;;;8.00;99.90;;;;;;5043862;28;20049;-71
2022/04/20 05:58:58;;;;;;;23.15;13.93;;;8.00;99.90;;;;;;5044117;28;20056;-72
2022/04/20 06:01:26;;;;;;;26.70;14.73;;;8.10;99.90;;;;;;5027440;28;20309;-72
2022/04/20 06:03:52;;;;;;;25.70;13.52;;;8.10;99.90;;;;;;5027712;28;20021;-71
2022/04/20 06:06:18;;;;;;;24.85;14.40;;;8.10;99.90;;;;;;5044859;28;20257;-71
2022/04/20 06:08:44;;;;;;;24.02;13.98;;;8.10;99.90;;;;;;5043794;28;20033;-71
2022/04/20 06:11:11;;;;;;;22.27;13.15;;;8.10;99.90;;;;;;5027262;28;20322;-72
2022/04/20 06:13:37;;;;;;;24.75;13.45;;;8.10;99.90;;;;;;5026760;28;20026;-70
2022/04/20 06:16:06;;;;;;;23.58;13.15;;;8.10;99.90;;;;;;5023879;28;20021;-73
2022/04/20 06:18:31;;;;;;;25.40;13.85;;;8.10;99.90;;;;;;5023290;28;20310;-71
2022/04/20 06:20:57;;;;;;;23.30;13.32;;;8.10;99.90;;;;;;5023528;28;20045;-70
2022/04/20 06:23:23;;;;;;;30.73;13.55;;;8.00;99.90;;;;;;5023477;28;20245;-71
2022/04/20 06:25:52;;;;;;;24.90;13.48;;;8.10;99.90;;;;;;5024909;28;20075;-72
2022/04/20 06:28:18;;;;;;;25.80;14.65;;;8.10;99.90;;;;;;5007568;28;20105;-70
2022/04/20 06:30:44;;;;;;;24.02;13.77;;;8.10;99.90;;;;;;5005617;28;20216;-71
2022/04/20 06:33:09;;;;;;;24.98;13.65;;;8.10;99.90;;;;;;5009451;28;20093;-73
2022/04/20 06:35:35;;;;;;;22.20;13.23;;;8.00;99.90;;;;;;5010064;28;20112;-71
2022/04/20 06:38:01;;;;;;;26.13;14.32;;;8.00;99.90;;;;;;5026461;28;20045;-71
2022/04/20 06:40:26;;;;;;;24.35;13.45;;;8.10;99.90;;;;;;5043191;28;20025;-71
2022/04/20 06:42:52;;;;;;;27.90;14.10;;;8.10;99.90;;;;;;5044252;28;20017;-70
2022/04/20 06:45:18;;;;;;;28.58;15.10;;;8.10;99.90;;;;;;5026699;28;20025;-71
2022/04/20 06:47:44;;;;;;;28.63;15.05;;;8.10;99.90;;;;;;5026438;28;20040;-71
2022/04/20 06:50:10;;;;;;;26.70;15.57;;;8.10;99.90;;;;;;5026247;28;20346;-70
2022/04/20 07:00:52;;;;;;;26.90;15.68;;;8.10;99.90;;;;;;5009838;28;20254;-71
2022/04/20 07:03:18;;;;;;;32.38;16.35;;;8.20;99.90;;;;;;5006219;28;20018;-72
2022/04/20 07:05:44;;;;;;;34.05;16.27;;;8.20;99.90;;;;;;5024384;28;20022;-71
2022/04/20 07:08:09;;;;;;;35.67;18.73;;;8.20;99.90;;;;;;5006364;28;20022;-71
2022/04/20 07:10:35;;;;;;;28.42;17.15;;;8.30;99.90;;;;;;5023335;28;20098;-71
2022/04/20 07:13:01;;;;;;;32.78;16.50;;;8.30;99.90;;;;;;5025756;28;20092;-71
2022/04/20 07:15:26;;;;;;;28.63;16.35;;;8.30;99.90;;;;;;5026361;28;20029;-71
2022/04/20 07:17:52;;;;;;;31.80;17.45;;;8.40;99.90;;;;;;5026104;28;20045;-72
2022/04/20 07:20:18;;;;;;;28.30;16.88;;;8.40;99.90;;;;;;5025682;28;20208;-71
2022/04/20 07:22:48;;;;;;;30.33;17.05;;;8.50;99.90;;;;;;5026198;28;20029;-72
2022/04/20 07:25:15;;;;;;;35.50;18.10;;;8.60;99.90;;;;;;5026464;28;20033;-71
2022/04/20 07:27:41;;;;;;;32.75;18.90;;;8.70;99.90;;;;;;5026208;28;20355;-73
2022/04/20 07:30:08;;;;;;;32.03;19.42;;;8.80;99.90;;;;;;5025878;28;20018;-72
2022/04/20 07:32:33;;;;;;;34.38;18.05;;;8.80;99.90;;;;;;5042408;28;20206;-73
2022/04/20 07:34:59;;;;;;;31.23;18.90;;;8.80;99.90;;;;;;5038964;28;20112;-72
2022/04/20 07:37:25;;;;;;;31.42;19.95;;;8.90;99.90;;;;;;5022566;28;20022;-73
2022/04/20 07:39:51;;;;;;;33.58;20.02;;;8.90;99.90;;;;;;4989841;28;20022;-71
2022/04/20 07:42:16;;;;;;;32.33;20.08;;;8.80;99.90;;;;;;5006024;28;20022;-72
2022/04/20 07:44:42;;;;;;;34.35;20.65;;;8.70;99.90;;;;;;5006243;28;20025;-74
2022/04/20 07:47:08;;;;;;;34.72;20.65;;;8.70;99.90;;;;;;5033071;28;20358;-72
2022/04/20 07:52:19;;;;;;;36.78;21.33;;;8.80;99.90;;;;;;5028591;28;20250;-73
2022/04/20 07:54:45;;;;;;;35.13;21.45;;;8.70;99.90;;;;;;5042232;28;20026;-73
2022/04/20 07:57:15;;;;;;;33.20;20.20;;;8.80;99.90;;;;;;5039706;28;20135;-71
2022/04/20 07:59:41;;;;;;;36.05;19.77;;;8.90;99.90;;;;;;5023153;28;20022;-71
2022/04/20 08:02:07;;;;;;;34.65;21.15;;;9.00;99.90;;;;;;5023656;28;20069;-71
2022/04/20 08:04:33;;;;;;;36.95;20.50;;;9.00;99.90;;;;;;5005842;28;20022;-72
2022/04/20 08:06:59;;;;;;;35.50;19.38;;;9.10;99.90;;;;;;5005750;28;20316;-71
2022/04/20 08:09:25;;;;;;;33.35;19.67;;;9.20;99.90;;;;;;5022048;28;20060;-72
2022/04/20 08:11:51;;;;;;;33.47;20.30;;;9.30;99.90;;;;;;5022459;28;20072;-71
2022/04/20 08:14:17;;;;;;;32.78;21.35;;;9.30;99.90;;;;;;5006272;28;20201;-73
2022/04/20 08:16:44;;;;;;;37.88;21.45;;;9.30;99.90;;;;;;5026331;28;20021;-73
2022/04/20 08:19:10;;;;;;;34.70;20.13;;;9.40;99.90;;;;;;5025454;28;20049;-71
2022/04/20 08:21:36;;;;;;;34.25;19.58;;;9.60;99.90;;;;;;5009421;28;20072;-72
2022/04/20 08:24:02;;;;;;;32.05;19.75;;;9.70;99.90;;;;;;5026232;28;20064;-72
2022/04/20 08:26:28;;;;;;;33.22;20.10;;;9.60;99.90;;;;;;5025965;28;20022;-72
2022/04/20 08:28:54;;;;;;;31.80;19.75;;;9.70;99.90;;;;;;5009069;28;20030;-72
2022/04/20 08:31:19;;;;;;;37.35;21.23;;;9.90;99.90;;;;;;5007832;28;20326;-72
2022/04/20 08:33:45;;;;;;;33.70;19.30;;;9.70;99.90;;;;;;5016776;28;20335;-73
2022/04/20 08:36:12;;;;;;;35.55;20.70;;;9.80;99.90;;;;;;5012142;28;20040;-71
2022/04/20 08:38:38;;;;;;;36.42;21.10;;;9.90;99.90;;;;;;5012849;28;20043;-71
2022/04/20 08:41:05;;;;;;;35.22;20.65;;;10.00;99.90;;;;;;5045610;28;20045;-72
2022/04/20 08:43:32;;;;;;;29.77;18.95;;;10.10;99.90;;;;;;5028958;28;20067;-73
2022/04/20 08:46:00;;;;;;;35.58;19.42;;;10.10;99.90;;;;;;5012745;28;20174;-72
2022/04/20 08:48:26;;;;;;;35.17;20.52;;;10.10;99.70;;;;;;5045120;28;20017;-73
2022/04/20 08:50:54;;;;;;;33.92;20.65;;;10.10;99.90;;;;;;5044699;28;20021;-71
2022/04/20 08:53:21;;;;;;;35.80;20.23;;;10.10;99.90;;;;;;5044910;28;20265;-73
2022/04/20 08:55:47;;;;;;;33.95;19.73;;;10.30;99.90;;;;;;5028568;28;20041;-72
2022/04/20 08:58:13;;;;;;;30.38;19.42;;;10.40;99.60;;;;;;5024672;28;20222;-73
2022/04/20 09:00:39;;;;;;;32.22;19.15;;;10.60;99.00;;;;;;4992921;28;20319;-71
2022/04/20 09:03:05;;;;;;;30.85;18.23;;;10.80;98.60;;;;;;5008756;28;20049;-71
2022/04/20 09:05:34;;;;;;;31.77;19.45;;;10.70;98.30;;;;;;5008607;28;20053;-71
2022/04/20 09:08:10;;;;;;;30.98;19.52;;;10.60;98.80;;;;;;5008917;28;20028;-73
2022/04/20 09:10:36;;;;;;;34.20;19.10;;;10.60;98.40;;;;;;5009034;28;20068;-74
2022/04/20 09:13:06;;;;;;;29.85;19.17;;;10.60;98.90;;;;;;5018698;28;20105;-74
2022/04/20 09:15:33;;;;;;;31.30;19.13;;;10.80;98.40;;;;;;5008726;28;20026;-72
2022/04/20 09:18:02;;;;;;;30.48;18.98;;;10.80;98.40;;;;;;5008862;28;20021;-72
2022/04/20 09:20:28;;;;;;;34.90;19.50;;;10.70;98.50;;;;;;5024516;28;20033;-73
2022/04/20 09:23:04;;;;;;;29.38;19.10;;;10.60;98.90;;;;;;5008645;28;20075;-72
2022/04/20 09:25:32;;;;;;;32.08;19.80;;;10.60;98.60;;;;;;5008146;28;20173;-73
2022/04/20 09:27:58;;;;;;;31.95;18.35;;;10.70;98.80;;;;;;5024895;28;20025;-73
2022/04/20 09:30:24;;;;;;;27.00;18.60;;;10.90;98.60;;;;;;5008482;28;20301;-73
2022/04/20 09:32:50;;;;;;;26.67;17.60;;;11.00;98.30;;;;;;5006920;28;20081;-70
2022/04/20 09:35:18;;;;;;;32.50;19.15;;;11.00;98.30;;;;;;5027782;28;20021;-71
2022/04/20 09:37:45;;;;;;;27.40;17.65;;;11.00;98.10;;;;;;5044160;28;20059;-73
2022/04/20 09:40:13;;;;;;;30.92;19.00;;;11.10;98.00;;;;;;5044351;28;20021;-70
2022/04/20 09:43:01;;;;;;;27.95;19.77;;;11.10;98.10;;;;;;5044252;28;20025;-71
2022/04/20 09:45:27;;;;;;;30.77;18.48;;;11.20;97.90;;;;;;5027892;28;20278;-71
2022/04/20 09:50:38;;;;;;;30.30;19.67;;;11.30;97.80;;;;;;5010391;28;20045;-71
2022/04/20 09:53:10;;;;;;;31.73;19.00;;;11.30;97.80;;;;;;5007767;28;20022;-71
2022/04/20 09:55:37;;;;;;;30.58;18.02;;;11.40;98.00;;;;;;5024417;28;20053;-73
2022/04/20 09:58:20;;;;;;;28.33;16.77;;;11.50;98.00;;;;;;5033841;28;20116;-72
2022/04/20 10:00:47;;;;;;;28.08;18.63;;;11.50;98.10;;;;;;5027283;28;20057;-72
2022/04/20 10:03:33;;;;;;;28.33;18.30;;;11.60;98.00;;;;;;5043628;28;20018;-72
2022/04/20 10:06:00;;;;;;;29.83;18.23;;;11.60;98.00;;;;;;5044056;28;20025;-72
2022/04/20 10:08:26;;;;;;;25.23;17.15;;;11.70;97.80;;;;;;5044021;28;20021;-72
2022/04/20 10:10:55;;;;;;;27.17;18.38;;;11.70;97.60;;;;;;5044025;28;20029;-72
2022/04/20 10:13:22;;;;;;;31.85;17.67;;;11.80;97.60;;;;;;5027699;28;20025;-72
2022/04/20 10:18:40;;;;;;;28.58;18.42;;;12.00;97.40;;;;;;5023848;28;20029;-72
2022/04/20 10:21:11;;;;;;;35.17;17.98;;;12.20;97.50;;;;;;5007029;28;20104;-72
2022/04/20 10:23:40;;;;;;;28.05;16.55;;;12.40;97.00;;;;;;5008093;28;20309;-72
2022/04/20 10:26:09;;;;;;;28.92;17.90;;;12.60;96.70;;;;;;5023231;28;20113;-71
2022/04/20 10:29:01;;;;;;;27.30;17.17;;;12.80;96.50;;;;;;5023860;28;20024;-73
2022/04/20 10:31:50;;;;;;;26.88;17.58;;;13.10;95.70;;;;;;5023721;28;20022;-71
2022/04/20 10:34:18;;;;;;;30.08;17.90;;;13.10;95.40;;;;;;5013763;28;20293;-71
2022/04/20 10:37:02;;;;;;;30.33;18.33;;;13.30;95.70;;;;;;5023194;28;20064;-74
2022/04/20 10:39:34;;;;;;;29.90;17.67;;;13.40;95.20;;;;;;5023351;28;20312;-73
2022/04/20 10:42:20;;;;;;;26.02;17.15;;;13.40;95.00;;;;;;5023085;28;20053;-71
2022/04/20 10:45:07;;;;;;;30.52;17.95;;;13.60;95.30;;;;;;5007469;28;20025;-71
2022/04/20 10:47:36;;;;;;;25.25;16.77;;;13.70;94.90;;;;;;5020395;28;20120;-72
2022/04/20 10:50:22;;;;;;;25.85;16.70;;;13.70;94.80;;;;;;5022730;28;20025;-72
2022/04/20 10:52:53;;;;;;;31.20;17.63;;;13.80;94.40;;;;;;5009446;28;20059;-74
2022/04/20 10:55:53;;;;;;;28.88;17.58;;;13.90;94.50;;;;;;5007376;28;20225;-73
2022/04/20 10:58:21;;;;;;;27.38;16.83;;;13.80;94.60;;;;;;5030901;28;20076;-71
2022/04/20 11:01:09;;;;;;;27.90;17.13;;;14.00;94.80;;;;;;5042750;28;20022;-72
2022/04/20 11:04:07;;;;;;;30.25;17.63;;;14.20;94.60;;;;;;5042879;28;20025;-72
2022/04/20 11:07:12;;;;;;;25.73;16.95;;;14.40;93.90;;;;;;5043217;28;20017;-72
2022/04/20 11:09:55;;;;;;;27.20;16.25;;;14.50;94.00;;;;;;5043120;28;20051;-72
2022/04/20 11:18:38;;;;;;;27.58;15.52;;;14.60;93.80;;;;;;5028858;28;20025;-72
2022/04/20 11:21:12;;;;;;;28.65;15.48;;;14.70;93.10;;;;;;5041976;28;20097;-73
2022/04/20 11:23:58;;;;;;;23.35;16.10;;;14.90;93.30;;;;;;5042874;28;20021;-72
2022/04/20 11:26:33;;;;;;;27.30;16.48;;;15.10;92.90;;;;;;5026426;28;20071;-72
2022/04/20 11:29:08;;;;;;;29.17;17.17;;;14.90;93.10;;;;;;5043620;28;20091;-72
2022/04/20 11:31:40;;;;;;;27.65;17.85;;;14.80;93.40;;;;;;5042250;28;20036;-73
2022/04/20 11:34:06;;;;;;;24.45;15.98;;;14.90;93.40;;;;;;5024357;28;20017;-72
2022/04/20 11:36:33;;;;;;;27.08;16.73;;;14.90;93.30;;;;;;5025853;28;20029;-72
2022/04/20 11:39:00;;;;;;;26.30;16.98;;;14.90;93.20;;;;;;5025705;28;20100;-72
2022/04/20 11:41:27;;;;;;;28.20;16.60;;;15.00;93.30;;;;;;5042620;28;20427;-72
2022/04/20 11:43:52;;;;;;;28.27;15.55;;;15.10;92.80;;;;;;5042388;28;20013;-72
2022/04/20 11:46:20;;;;;;;23.65;15.10;;;15.10;92.70;;;;;;5025750;28;20014;-73
2022/04/20 11:48:51;;;;;;;27.52;15.77;;;15.10;92.50;;;;;;5043159;28;20033;-72
2022/04/20 11:51:21;;;;;;;24.80;15.50;;;15.20;92.70;;;;;;5030442;28;20235;-73
2022/04/20 11:53:48;;;;;;;28.60;15.30;;;15.40;92.60;;;;;;5045852;28;20375;-73
2022/04/20 11:56:32;;;;;;;27.55;16.42;;;15.60;92.30;;;;;;5046521;28;20315;-72
2022/04/20 11:58:58;;;;;;;24.88;15.63;;;15.70;92.30;;;;;;5029712;28;20049;-72
2022/04/20 12:01:25;;;;;;;29.20;16.92;;;15.70;92.40;;;;;;5029986;28;20075;-73
2022/04/20 12:03:51;;;;;;;22.05;14.90;;;15.70;92.30;;;;;;5029547;28;20040;-74
2022/04/20 12:06:18;;;;;;;25.00;15.50;;;15.80;91.50;;;;;;5046130;28;20017;-72
2022/04/20 12:08:45;;;;;;;22.02;14.52;;;16.00;91.50;;;;;;5029592;28;20033;-71
2022/04/20 12:11:12;;;;;;;29.55;16.75;;;16.10;91.40;;;;;;5029767;28;20193;-72
2022/04/20 12:13:40;;;;;;;28.45;16.50;;;16.10;91.40;;;;;;5027758;28;20316;-72
2022/04/20 12:16:10;;;;;;;25.38;15.90;;;16.00;91.70;;;;;;5025897;28;20217;-74
2022/04/20 12:18:41;;;;;;;26.10;16.73;;;15.90;91.30;;;;;;5009757;28;20033;-72
2022/04/20 12:21:35;;;;;;;40.38;19.52;;;16.00;91.50;;;;;;5009753;28;20363;-73
2022/04/20 12:24:00;;;;;;;31.38;17.90;;;15.80;92.10;;;;;;5025737;28;20102;-73
2022/04/20 12:26:28;;;;;;;26.42;17.25;;;15.80;91.90;;;;;;5009950;28;20026;-70
2022/04/20 12:29:09;;;;;;;26.42;17.98;;;15.90;91.80;;;;;;5026064;28;20089;-71
2022/04/20 12:31:41;;;;;;;27.80;17.02;;;15.80;92.00;;;;;;5026324;28;20317;-71
2022/04/20 12:34:08;;;;;;;;;;;15.70;92.40;;;;;;5020300;28;20040;-72
2022/04/20 12:36:52;;;;;;;27.10;16.55;;;15.70;92.40;;;;;;5043575;28;20100;-72
2022/04/20 12:39:38;;;;;;;25.92;16.38;;;15.90;91.90;;;;;;5029828;28;20025;-72
2022/04/20 12:42:10;;;;;;;27.80;16.88;;;16.10;91.60;;;;;;5045314;28;20026;-73
2022/04/20 12:44:53;;;;;;;28.45;17.10;;;16.30;91.30;;;;;;5029080;28;20021;-72
2022/04/20 12:47:33;;;;;;;24.55;16.25;;;16.40;91.30;;;;;;5042224;28;20304;-72
2022/04/20 12:50:15;;;;;;;21.50;15.38;;;16.50;90.70;;;;;;5008784;28;20205;-73
2022/04/20 12:52:49;;;;;;;28.23;16.60;;;16.70;91.10;;;;;;5009356;28;20205;-72
2022/04/20 12:55:16;;;;;;;25.50;15.98;;;16.90;90.50;;;;;;5025660;28;20032;-72
2022/04/20 13:02:01;;;;;;;22.38;14.60;;;16.90;90.30;;;;;;5030988;28;20063;-72
2022/04/20 13:03:35;;;;;;;25.83;15.00;;;17.20;90.00;;;;;;5031332;28;20014;-73
2022/04/20 13:06:02;;;;;;;20.77;14.43;;;17.50;88.30;;;;;;5045202;28;20051;-72
2022/04/20 13:08:28;;;;;;;13.60;8.40;;;17.70;88.50;;;;;;5045117;28;20037;-73
2022/04/20 13:10:53;;;;;;;18.50;7.90;;;17.60;82.40;;;;;;5045244;28;20025;-71
2022/04/20 13:13:24;;;;;;;13.93;7.90;;;17.50;82.60;;;;;;5030336;28;20336;-72
2022/04/20 13:15:50;;;;;;;16.95;10.40;;;17.80;81.10;;;;;;5024950;28;20022;-72